Time;durP1;ratioP1;P1;durP2;ratioP2;P2;SDS_P1;SDS_P2;PMS_P1;PMS_P2;Temp;Humidity;BMP_temperature;BMP_pressure;BME280_temperature;BME280_humidity;BME280_pressure;Samples;Min_cycle;Max_cycle;Signal;HPM_P1;HPM_P2
2022/06/23 00:02:26;;;;;;;5.97;3.20;;;;;;;16.73;62.05;98891.53;5070829;28;20047;-61
2022/06/23 00:04:56;;;;;;;5.30;2.92;;;;;;;16.43;62.10;98856.75;5075139;28;20021;-61
2022/06/23 00:07:35;;;;;;;7.10;3.42;;;;;;;16.47;61.99;98853.88;5075034;28;20039;-61
2022/06/23 00:10:32;;;;;;;7.10;3.42;;;;;;;16.65;62.54;98891.16;5068276;28;20132;-61
2022/06/23 00:12:58;;;;;;;4.80;2.50;;;;;;;16.63;62.19;98893.03;5046937;28;20048;-60
2022/06/23 00:15:37;;;;;;;3.72;3.00;;;;;;;16.45;62.06;98873.22;5038374;28;20017;-60
2022/06/23 00:18:06;;;;;;;6.38;2.88;;;;;;;16.45;62.14;98878.44;5075153;28;20024;-60
2022/06/23 00:20:42;;;;;;;4.90;2.55;;;;;;;16.55;62.65;98890.03;5045751;28;20040;-60
2022/06/23 00:23:20;;;;;;;6.13;3.00;;;;;;;16.45;62.66;98884.50;5054954;28;20029;-61
2022/06/23 00:25:49;;;;;;;4.78;3.00;;;;;;;16.47;62.84;98887.84;5068116;28;20028;-60
2022/06/23 00:28:24;;;;;;;4.28;3.00;;;;;;;16.42;62.39;98891.66;5074623;28;20410;-60
2022/06/23 00:31:02;;;;;;;6.68;3.20;;;;;;;16.35;62.98;98894.63;5074726;28;20033;-60
2022/06/23 00:33:38;;;;;;;6.18;2.80;;;;;;;16.31;63.85;98885.28;5070331;28;20027;-61
2022/06/23 00:36:26;;;;;;;7.38;3.25;;;;;;;16.20;62.85;98874.63;5033694;28;20021;-61
2022/06/23 00:38:52;;;;;;;7.88;3.78;;;;;;;16.28;63.15;98893.31;5034167;28;20042;-61
2022/06/23 00:41:22;;;;;;;8.05;5.70;;;;;;;16.24;63.38;98893.59;5083476;28;20029;-60
2022/06/23 00:43:50;;;;;;;4.72;3.33;;;;;;;15.94;63.22;98850.00;5067498;28;20033;-61
2022/06/23 00:46:19;;;;;;;3.47;2.70;;;;;;;16.12;63.59;98924.72;5063464;28;20052;-60
2022/06/23 00:48:55;;;;;;;4.18;3.00;;;;;;;16.15;63.20;98914.06;5054292;28;20424;-60
2022/06/23 00:51:27;;;;;;;5.35;2.65;;;;;;;16.08;63.37;98906.69;5053472;28;20036;-61
2022/06/23 00:53:59;;;;;;;4.57;2.78;;;;;;;16.10;64.18;98915.25;5053912;28;20489;-61
2022/06/23 00:56:37;;;;;;;;;;;;;;;16.07;64.39;98916.28;5036231;28;20167;-60
2022/06/23 00:59:12;;;;;;;5.75;3.00;;;;;;;15.82;64.01;98875.88;5034352;28;19917;-60
2022/06/23 01:01:57;;;;;;;4.45;2.70;;;;;;;15.74;63.64;98865.00;5044648;28;20056;-60
2022/06/23 01:04:57;;;;;;;3.08;2.72;;;;;;;16.04;63.50;98913.84;5063434;28;20441;-61
2022/06/23 01:08:00;;;;;;;4.45;3.00;;;;;;;15.92;63.86;98898.84;5064824;28;20040;-61
2022/06/23 01:10:48;;;;;;;4.38;2.78;;;;;;;15.98;63.90;98917.63;5054303;28;20048;-60
2022/06/23 01:13:30;;;;;;;4.68;2.55;;;;;;;15.96;64.07;98929.97;5034074;28;20033;-60
2022/06/23 01:16:17;;;;;;;3.42;2.58;;;;;;;15.64;63.85;98877.72;5042400;28;20116;-60
2022/06/23 01:19:24;;;;;;;5.03;3.10;;;;;;;15.91;63.91;98921.53;5052649;28;20106;-60
2022/06/23 01:21:58;;;;;;;7.57;2.92;;;;;;;15.60;64.11;98885.81;5026471;28;20383;-62
2022/06/23 01:24:46;;;;;;;4.95;2.67;;;;;;;15.90;63.98;98929.44;5033765;28;20517;-59
2022/06/23 01:27:25;;;;;;;3.35;2.97;;;;;;;15.93;63.97;98929.28;5033806;28;20051;-60
2022/06/23 01:30:03;;;;;;;7.30;3.15;;;;;;;15.62;64.11;98878.72;5033916;28;20040;-60
2022/06/23 01:32:53;;;;;;;4.85;2.67;;;;;;;15.65;63.96;98884.63;5070983;28;20025;-60
2022/06/23 01:35:34;;;;;;;7.22;2.67;;;;;;;15.67;63.69;98884.53;5073372;28;20798;-60
2022/06/23 01:38:09;;;;;;;4.27;3.00;;;;;;;15.61;64.24;98896.16;5044828;28;20505;-60
2022/06/23 01:40:44;;;;;;;4.38;2.65;;;;;;;15.93;64.90;98952.78;5033875;28;20041;-59
2022/06/23 01:43:22;;;;;;;4.95;2.90;;;;;;;15.96;64.17;98942.16;5033499;28;20494;-60
2022/06/23 01:45:48;;;;;;;5.32;2.88;;;;;;;15.93;64.13;98943.16;5041851;28;20465;-60
2022/06/23 01:51:20;;;;;;;4.40;2.60;;;;;;;15.67;64.02;98906.25;5073354;28;20517;-61
2022/06/23 01:53:46;;;;;;;3.85;2.78;;;;;;;15.94;63.97;98952.69;5036514;28;20028;-61
2022/06/23 01:56:19;;;;;;;4.90;2.72;;;;;;;15.89;64.45;98970.41;5068928;28;20029;-61
2022/06/23 01:59:12;;;;;;;4.05;3.00;;;;;;;15.92;64.18;98958.91;5060834;28;20474;-61
2022/06/23 02:01:58;;;;;;;5.20;2.92;;;;;;;15.94;64.31;98968.34;5064426;28;20036;-62
2022/06/23 02:04:48;;;;;;;3.17;2.40;;;;;;;15.65;63.91;98915.94;5029032;28;20116;-62
2022/06/23 02:07:24;;;;;;;3.45;2.88;;;;;;;15.64;64.32;98913.41;5033271;28;20030;-62
2022/06/23 02:09:53;;;;;;;3.50;2.38;;;;;;;15.61;64.42;98919.66;5032985;28;20025;-62
2022/06/23 02:12:22;;;;;;;3.63;2.60;;;;;;;16.00;64.08;98973.25;5036717;28;20047;-62
2022/06/23 02:15:06;;;;;;;4.28;2.75;;;;;;;15.93;63.96;98964.06;5052898;28;20025;-62
2022/06/23 02:17:54;;;;;;;4.88;2.78;;;;;;;16.03;64.18;98980.91;5051700;28;20471;-62
2022/06/23 02:20:43;;;;;;;4.22;2.88;;;;;;;16.07;64.03;98973.75;5052786;28;20025;-61
2022/06/23 02:23:44;;;;;;;4.75;2.97;;;;;;;15.85;63.79;98935.75;5050034;28;20069;-61
2022/06/23 02:26:10;;;;;;;2.75;2.47;;;;;;;16.16;63.40;98988.91;5048466;28;20120;-61
2022/06/23 02:28:35;;;;;;;4.25;2.50;;;;;;;16.22;63.64;98987.72;5052583;28;20107;-61
2022/06/23 02:31:23;;;;;;;3.60;2.50;;;;;;;16.33;62.91;98987.13;5052530;28;20470;-61
2022/06/23 02:33:53;;;;;;;3.25;2.50;;;;;;;16.36;62.95;99000.00;5056806;28;20028;-61
2022/06/23 02:36:36;;;;;;;3.15;2.67;;;;;;;16.31;62.62;98983.75;5072562;28;20558;-61
2022/06/23 02:39:05;;;;;;;4.18;2.83;;;;;;;16.28;62.34;98976.94;5032115;28;20479;-62
2022/06/23 02:41:47;;;;;;;3.15;2.42;;;;;;;16.52;62.17;99015.69;5049585;28;20045;-62
2022/06/23 02:44:45;;;;;;;3.08;2.28;;;;;;;16.51;62.14;99014.00;5052423;28;20541;-62
2022/06/23 02:47:41;;;;;;;2.85;2.22;;;;;;;16.58;62.45;99015.31;5064858;28;20036;-62
2022/06/23 02:50:27;;;;;;;2.50;2.30;;;;;;;16.64;62.54;99028.03;5071172;28;20389;-62
2022/06/23 02:52:53;;;;;;;3.67;2.40;;;;;;;16.67;61.96;99014.78;5046876;28;20026;-62
2022/06/23 02:55:43;;;;;;;5.18;2.50;;;;;;;16.64;61.46;99014.97;5040195;28;20132;-62
2022/06/23 02:58:51;;;;;;;4.13;2.38;;;;;;;16.68;60.90;99008.63;5032613;28;20029;-61
2022/06/23 03:01:28;;;;;;;4.18;2.83;;;;;;;16.50;61.81;98992.25;5047407;28;20045;-62
2022/06/23 03:04:10;;;;;;;2.35;2.15;;;;;;;16.50;61.89;98983.53;5063127;28;20030;-61
2022/06/23 03:06:59;;;;;;;3.40;2.30;;;;;;;16.79;61.82;99022.84;5032250;28;20052;-61
2022/06/23 03:09:47;;;;;;;5.82;2.60;;;;;;;16.53;61.15;98978.13;5052272;28;20025;-61
2022/06/23 03:12:18;;;;;;;2.85;2.10;;;;;;;16.90;61.97;99030.94;5032570;28;20207;-61
2022/06/23 03:15:07;;;;;;;3.45;2.17;;;;;;;16.94;60.75;99032.47;5071432;28;20021;-62
2022/06/23 03:17:32;;;;;;;5.63;2.42;;;;;;;16.96;60.94;99029.75;5076314;28;20036;-62
2022/06/23 03:20:29;;;;;;;4.60;2.40;;;;;;;17.11;61.51;99033.25;5070049;28;20021;-62
2022/06/23 03:23:00;;;;;;;3.53;2.40;;;;;;;17.22;59.95;99033.47;5054811;28;20390;-61
2022/06/23 03:25:40;;;;;;;3.92;2.08;;;;;;;17.34;60.25;99039.72;5055844;28;20498;-62
2022/06/23 03:28:25;;;;;;;3.78;2.33;;;;;;;17.09;60.45;98994.09;5062086;28;20442;-62
2022/06/23 03:31:02;;;;;;;4.88;2.20;;;;;;;17.16;59.85;99003.25;5075790;28;20473;-62
2022/06/23 03:33:39;;;;;;;6.25;2.20;;;;;;;17.52;59.96;99051.72;5076230;28;20039;-62
2022/06/23 03:36:14;;;;;;;5.75;2.50;;;;;;;17.23;59.20;99006.38;5075780;28;20021;-62
2022/06/23 03:41:39;;;;;;;2.92;2.20;;;;;;;17.28;58.53;99016.56;5075616;28;20044;-62
2022/06/23 03:44:09;;;;;;;2.03;1.80;;;;;;;17.69;58.87;99060.34;5061577;28;20025;-62
2022/06/23 03:46:40;;;;;;;2.20;1.92;;;;;;;17.55;59.22;99033.19;5051699;28;20099;-62
2022/06/23 03:49:26;;;;;;;2.93;2.03;;;;;;;17.57;57.83;99028.72;5061704;28;20025;-62
2022/06/23 03:51:56;;;;;;;3.75;2.00;;;;;;;17.80;59.48;99051.78;5075491;28;20040;-62
2022/06/23 03:54:26;;;;;;;5.30;1.80;;;;;;;17.64;58.18;99017.84;5067307;28;20029;-61
2022/06/23 03:57:26;;;;;;;2.15;1.95;;;;;;;18.09;58.03;99071.00;5035448;28;20040;-61
2022/06/23 04:00:22;;;;;;;2.45;2.22;;;;;;;18.17;58.43;99073.13;5033344;28;20033;-61
2022/06/23 04:03:05;;;;;;;5.80;2.00;;;;;;;17.98;57.92;99029.72;5067249;28;20032;-61
2022/06/23 04:05:55;;;;;;;2.38;1.80;;;;;;;18.19;57.42;99079.13;5058059;28;20039;-61
2022/06/23 04:08:30;;;;;;;4.60;1.95;;;;;;;18.27;57.45;99067.22;5054344;28;20032;-60
2022/06/23 04:11:43;;;;;;;2.75;2.03;;;;;;;18.39;57.79;99078.69;5067362;28;20028;-61
2022/06/23 04:13:49;;;;;;;2.58;2.00;;;;;;;18.44;56.61;99083.63;5074548;28;20035;-61
2022/06/23 04:16:15;;;;;;;3.35;1.80;;;;;;;18.48;58.03;99084.28;5060382;28;20124;-62
2022/06/23 04:18:45;;;;;;;4.07;2.20;;;;;;;18.26;57.12;99051.59;5038872;28;20029;-62
2022/06/23 04:21:20;;;;;;;2.03;1.80;;;;;;;18.50;55.86;99091.13;5059645;28;20052;-61
2022/06/23 04:24:12;;;;;;;3.30;1.90;;;;;;;18.61;56.91;99093.03;5054599;28;20032;-61
2022/06/23 04:26:41;;;;;;;5.45;1.92;;;;;;;18.50;56.85;99050.94;5053576;28;20488;-62
2022/06/23 04:29:09;;;;;;;3.92;2.15;;;;;;;18.75;56.74;99093.00;5068190;28;20107;-61
2022/06/23 04:31:40;;;;;;;2.58;2.20;;;;;;;18.58;56.94;99064.41;5074101;28;20052;-62
2022/06/23 04:34:14;;;;;;;2.75;2.00;;;;;;;18.80;57.09;99087.47;5063160;28;20030;-62
2022/06/23 04:36:44;;;;;;;4.13;1.70;;;;;;;18.59;57.04;99045.94;5034154;28;20029;-62
2022/06/23 04:39:37;;;;;;;2.22;1.70;;;;;;;18.98;56.58;99101.19;5047864;28;20044;-61
2022/06/23 04:42:18;;;;;;;2.83;1.80;;;;;;;19.04;55.15;99092.91;5065995;28;20414;-62
2022/06/23 04:44:48;;;;;;;6.75;2.20;;;;;;;18.85;57.16;99050.44;5052732;28;20029;-62
2022/06/23 04:47:14;;;;;;;3.63;1.95;;;;;;;19.23;55.63;99092.53;5049737;28;20025;-62
2022/06/23 04:49:45;;;;;;;5.20;2.00;;;;;;;19.23;55.44;99102.19;5063396;28;20032;-62
2022/06/23 04:52:28;;;;;;;4.70;2.03;;;;;;;19.08;56.19;99054.16;5073045;28;20056;-63
2022/06/23 04:55:12;;;;;;;3.35;1.83;;;;;;;19.18;54.81;99067.53;5057020;28;20490;-63
2022/06/23 04:57:43;;;;;;;2.25;2.05;;;;;;;19.51;55.50;99102.94;5033903;28;20033;-62
2022/06/23 05:00:22;;;;;;;3.28;1.88;;;;;;;19.58;55.51;99097.19;5053518;28;20493;-63
2022/06/23 05:02:52;;;;;;;1.83;1.73;;;;;;;19.67;55.99;99099.19;5070993;28;20037;-61
2022/06/23 05:05:29;;;;;;;4.43;2.13;;;;;;;19.76;54.54;99102.94;5041321;28;20120;-62
2022/06/23 05:08:12;;;;;;;1.88;1.70;;;;;;;19.82;55.07;99097.31;5056218;28;20029;-62
2022/06/23 05:10:38;;;;;;;5.43;2.80;;;;;;;19.93;54.53;99098.34;5072005;28;20025;-62
2022/06/23 05:13:15;;;;;;;5.05;2.40;;;;;;;19.97;54.34;99099.81;5063692;28;20099;-62
2022/06/23 05:15:44;;;;;;;5.68;1.90;;;;;;;20.10;53.47;99108.53;5035255;28;20120;-62
2022/06/23 05:18:17;;;;;;;2.83;1.80;;;;;;;20.23;52.43;99105.03;5053457;28;20032;-62
2022/06/23 05:21:04;;;;;;;5.20;1.95;;;;;;;20.43;52.82;99091.28;5053228;28;20071;-62
2022/06/23 05:23:43;;;;;;;2.90;1.70;;;;;;;20.55;52.14;99109.75;5053329;28;20107;-62
2022/06/23 05:26:26;;;;;;;3.42;1.85;;;;;;;20.38;52.12;99066.25;5052963;28;20024;-62
2022/06/23 05:28:58;;;;;;;3.65;2.47;;;;;;;20.49;52.72;99056.66;5052953;28;20107;-63
2022/06/23 05:31:29;;;;;;;3.58;1.98;;;;;;;20.69;51.23;99071.03;5045394;28;20045;-62
2022/06/23 05:33:59;;;;;;;4.05;2.03;;;;;;;21.05;50.42;99115.81;5040378;28;20437;-63
2022/06/23 05:36:31;;;;;;;1.98;1.75;;;;;;;21.16;49.56;99101.81;5071607;28;20020;-62
2022/06/23 05:39:21;;;;;;;1.95;1.75;;;;;;;21.25;49.12;99111.66;5032032;28;20053;-63
2022/06/23 05:41:52;;;;;;;6.32;1.80;;;;;;;21.12;49.34;99064.34;5032852;28;20052;-62
2022/06/23 05:44:28;;;;;;;1.90;1.73;;;;;;;21.44;48.63;99112.91;5047834;28;20047;-62
2022/06/23 05:46:57;;;;;;;2.78;1.98;;;;;;;21.49;49.56;99114.25;5059803;28;20119;-62
2022/06/23 05:49:27;;;;;;;3.47;1.63;;;;;;;21.51;48.82;99100.94;5058040;28;20388;-62
2022/06/23 05:52:04;;;;;;;1.90;1.60;;;;;;;21.52;47.49;99119.31;5032603;28;20458;-63
2022/06/23 05:54:49;;;;;;;2.85;1.85;;;;;;;21.49;46.61;99123.94;5042141;28;20044;-62
2022/06/23 05:57:20;;;;;;;3.80;1.70;;;;;;;21.57;47.78;99124.22;5035736;28;20017;-61
2022/06/23 05:59:48;;;;;;;1.63;1.52;;;;;;;21.65;47.16;99129.75;5033776;28;20033;-62
2022/06/23 06:02:27;;;;;;;6.07;1.92;;;;;;;21.60;46.01;99123.16;5032679;28;20030;-61
2022/06/23 06:04:57;;;;;;;2.75;1.75;;;;;;;21.65;47.78;99121.00;5043176;28;20082;-61
2022/06/23 06:07:32;;;;;;;3.95;1.67;;;;;;;21.77;46.38;99135.03;5049934;28;20024;-61
2022/06/23 06:09:59;;;;;;;2.40;1.63;;;;;;;21.87;45.38;99138.63;5050180;28;20086;-61
2022/06/23 06:12:31;;;;;;;6.45;2.10;;;;;;;21.72;44.33;99114.31;5051811;28;20025;-61
2022/06/23 06:15:15;;;;;;;4.10;1.40;;;;;;;21.82;42.25;99135.50;5048157;28;20029;-63
2022/06/23 06:17:41;;;;;;;1.92;1.40;;;;;;;21.96;44.65;99137.94;5049270;28;20107;-63
2022/06/23 06:20:09;;;;;;;1.58;1.40;;;;;;;21.83;42.94;99135.41;5052823;28;20025;-63
2022/06/23 06:23:09;;;;;;;2.60;1.60;;;;;;;21.96;42.32;99145.00;5050196;28;20425;-63
2022/06/23 06:25:39;;;;;;;2.05;1.63;;;;;;;21.86;43.30;99145.72;5041323;28;20025;-62
2022/06/23 06:28:15;;;;;;;2.45;1.70;;;;;;;21.85;42.77;99140.56;5031940;28;20025;-61
2022/06/23 06:30:46;;;;;;;3.13;1.33;;;;;;;21.73;43.60;99113.34;5034667;28;20026;-61
2022/06/23 06:33:42;;;;;;;2.22;2.00;;;;;;;21.69;42.38;99099.56;5072262;28;20024;-60
2022/06/23 06:36:31;;;;;;;2.97;1.80;;;;;;;21.90;43.21;99141.03;5031677;28;20029;-60
2022/06/23 06:39:08;;;;;;;1.90;1.60;;;;;;;21.80;44.80;99104.00;5071568;28;20057;-60
2022/06/23 06:41:34;;;;;;;2.35;1.73;;;;;;;22.04;43.50;99137.31;5072082;28;20051;-61
2022/06/23 06:44:02;;;;;;;1.70;1.50;;;;;;;22.05;42.95;99131.94;5046520;28;20052;-62
2022/06/23 06:46:29;;;;;;;3.00;1.65;;;;;;;22.20;43.72;99127.25;5039174;28;20021;-62
2022/06/23 06:48:56;;;;;;;2.08;1.73;;;;;;;22.17;44.42;99135.41;5054605;28;20487;-62
2022/06/23 06:51:25;;;;;;;2.95;1.50;;;;;;;22.09;42.64;99114.09;5076645;28;20059;-63
2022/06/23 06:54:00;;;;;;;3.03;1.50;;;;;;;21.81;41.72;99094.31;5046250;28;20032;-63
2022/06/23 06:56:40;;;;;;;2.20;1.65;;;;;;;21.96;40.94;99127.38;5042602;28;20045;-62
2022/06/23 06:59:05;;;;;;;1.85;1.40;;;;;;;22.15;41.57;99147.06;5051170;28;20029;-62
2022/06/23 07:01:35;;;;;;;2.13;1.80;;;;;;;22.20;40.88;99143.09;5048643;28;20364;-63
2022/06/23 07:04:01;;;;;;;1.65;1.17;;;;;;;22.28;40.12;99133.72;5038308;28;20036;-64
2022/06/23 07:06:45;;;;;;;2.72;1.48;;;;;;;22.45;41.11;99149.09;5038276;28;20021;-64
2022/06/23 07:09:21;;;;;;;1.40;1.30;;;;;;;22.57;40.67;99139.34;5038326;28;20029;-62
2022/06/23 07:11:55;;;;;;;3.90;2.00;;;;;;;22.72;41.42;99142.56;5055981;28;20040;-64
2022/06/23 07:14:32;;;;;;;14.55;4.68;;;;;;;22.75;41.27;99142.31;5072033;28;20035;-62
2022/06/23 07:17:16;;;;;;;2.05;1.65;;;;;;;22.79;39.35;99156.09;5066274;28;20028;-61
2022/06/23 07:20:01;;;;;;;5.63;1.55;;;;;;;22.83;40.46;99147.81;5058384;28;20079;-62
2022/06/23 07:23:02;;;;;;;2.25;1.40;;;;;;;23.02;40.83;99151.59;5055284;28;20029;-62
2022/06/23 07:25:37;;;;;;;2.45;1.40;;;;;;;23.02;39.69;99168.25;5049816;28;20029;-63
2022/06/23 07:28:13;;;;;;;3.47;1.70;;;;;;;22.92;41.32;99154.13;5056837;28;20553;-63
2022/06/23 07:30:49;;;;;;;1.90;1.67;;;;;;;22.84;39.56;99149.47;5054757;28;20025;-61
2022/06/23 07:33:29;;;;;;;2.20;1.55;;;;;;;23.04;40.05;99160.22;5056377;28;20094;-62
2022/06/23 07:36:47;;;;;;;1.92;1.38;;;;;;;23.07;39.95;99154.66;5057088;28;20023;-61
2022/06/23 07:39:18;;;;;;;3.25;1.58;;;;;;;23.15;40.62;99159.38;5038277;28;20045;-61
2022/06/23 07:41:58;;;;;;;1.85;1.58;;;;;;;23.16;40.41;99153.97;5056030;28;20033;-62
2022/06/23 07:44:44;;;;;;;2.95;1.80;;;;;;;22.80;39.60;99126.09;5055004;28;20064;-61
2022/06/23 07:47:10;;;;;;;2.92;1.60;;;;;;;23.09;39.67;99160.69;5055320;28;20467;-62
2022/06/23 07:49:36;;;;;;;3.20;1.63;;;;;;;23.19;41.31;99159.00;5050865;28;20067;-61
2022/06/23 07:52:03;;;;;;;4.38;1.75;;;;;;;23.18;39.99;99165.22;5055867;28;20413;-61
2022/06/23 07:54:30;;;;;;;3.53;1.67;;;;;;;23.18;40.75;99162.59;5057257;28;20553;-61
2022/06/23 07:56:56;;;;;;;2.75;1.45;;;;;;;23.13;40.34;99164.78;5057510;28;20068;-61
2022/06/23 07:59:32;;;;;;;4.43;1.70;;;;;;;22.86;39.88;99163.41;5057285;28;20029;-61
2022/06/23 08:02:17;;;;;;;2.00;1.40;;;;;;;23.11;41.32;99166.69;5054843;28;20087;-61
2022/06/23 08:05:11;;;;;;;3.05;1.38;;;;;;;23.16;40.53;99151.31;5044366;28;20121;-61
2022/06/23 08:07:38;;;;;;;2.92;1.40;;;;;;;23.20;41.87;99134.25;5053979;28;20116;-61
2022/06/23 08:10:09;;;;;;;3.67;1.80;;;;;;;23.17;40.59;99116.00;5054556;28;20032;-62
2022/06/23 08:12:54;;;;;;;2.42;1.67;;;;;;;23.38;39.59;99152.16;5054748;28;20557;-61
2022/06/23 08:18:26;;;;;;;3.08;1.75;;;;;;;23.24;38.18;99164.75;5054781;28;20371;-62
2022/06/23 08:21:01;;;;;;;1.63;1.52;;;;;;;23.46;40.05;99155.03;5053109;28;20048;-61
2022/06/23 08:23:30;;;;;;;2.72;1.70;;;;;;;23.24;38.27;99119.81;5051907;28;20056;-61
2022/06/23 08:25:56;;;;;;;2.28;1.65;;;;;;;23.56;39.98;99170.94;5054545;28;20559;-62
2022/06/23 08:28:22;;;;;;;2.10;1.80;;;;;;;23.60;38.32;99167.91;5060311;28;20024;-61
2022/06/23 08:30:48;;;;;;;2.70;1.52;;;;;;;23.75;37.45;99175.50;5074893;28;20036;-60
2022/06/23 08:33:14;;;;;;;2.90;1.95;;;;;;;23.76;37.25;99182.50;5044366;28;20053;-60
2022/06/23 08:35:47;;;;;;;2.20;2.00;;;;;;;23.73;37.59;99173.00;5056342;28;20094;-60
2022/06/23 08:38:21;;;;;;;3.53;1.70;;;;;;;23.90;37.61;99182.19;5041512;28;20044;-59
2022/06/23 08:41:05;;;;;;;1.88;1.67;;;;;;;23.70;36.83;99183.84;5035230;28;20045;-60
2022/06/23 08:44:00;;;;;;;2.92;1.88;;;;;;;23.62;37.11;99151.91;5049125;28;20037;-59
2022/06/23 08:46:46;;;;;;;2.13;1.75;;;;;;;23.97;37.93;99176.34;5060614;28;20109;-60
2022/06/23 08:49:21;;;;;;;1.55;1.45;;;;;;;23.90;37.24;99174.25;5057405;28;20028;-60
2022/06/23 08:52:29;;;;;;;4.80;1.70;;;;;;;24.08;37.64;99177.09;5074310;28;20025;-60
2022/06/23 08:55:06;;;;;;;2.50;1.80;;;;;;;24.05;37.15;99150.91;5027802;28;20040;-63
2022/06/23 08:57:50;;;;;;;3.97;1.67;;;;;;;23.33;36.89;99130.56;5074454;28;20117;-60
2022/06/23 09:00:30;;;;;;;1.92;1.80;;;;;;;23.72;37.56;99144.88;5054519;28;20037;-61
2022/06/23 09:03:18;;;;;;;2.95;2.17;;;;;;;24.24;39.38;99160.75;5061567;28;20421;-63
2022/06/23 09:05:52;;;;;;;4.60;2.03;;;;;;;23.90;37.53;99142.50;5070992;28;20033;-61
2022/06/23 09:08:18;;;;;;;4.45;2.00;;;;;;;24.14;38.04;99181.03;5060198;28;20036;-61
2022/06/23 09:10:59;;;;;;;4.05;2.70;;;;;;;24.37;39.07;99183.50;5061649;28;20438;-62
2022/06/23 09:13:28;;;;;;;4.72;2.42;;;;;;;24.48;38.71;99186.03;5061591;28;20025;-62
2022/06/23 09:16:24;;;;;;;3.60;1.90;;;;;;;24.60;38.58;99185.00;5033645;28;20021;-63
2022/06/23 09:18:49;;;;;;;2.60;1.70;;;;;;;24.68;38.90;99181.66;5036160;28;20017;-61
2022/06/23 09:21:39;;;;;;;3.45;2.10;;;;;;;24.62;36.48;99188.34;5058586;28;20451;-60
2022/06/23 09:24:34;;;;;;;3.90;2.17;;;;;;;24.50;38.15;99141.75;5053367;28;20079;-62
2022/06/23 09:27:33;;;;;;;6.22;2.08;;;;;;;24.50;37.02;99157.63;5072406;28;20040;-62
2022/06/23 09:30:08;;;;;;;3.58;2.30;;;;;;;24.81;38.30;99186.69;5054957;28;20033;-61
2022/06/23 09:32:36;;;;;;;2.85;1.98;;;;;;;24.84;37.99;99188.25;5053466;28;20032;-61
2022/06/23 09:35:23;;;;;;;3.67;1.60;;;;;;;24.67;36.07;99197.69;5041130;28;20032;-61
2022/06/23 09:38:26;;;;;;;1.90;1.80;;;;;;;24.72;36.23;99195.47;5031846;28;20032;-62
2022/06/23 09:41:24;;;;;;;5.10;2.10;;;;;;;24.48;34.67;99162.22;5053028;28;20040;-62
2022/06/23 09:43:59;;;;;;;6.90;2.28;;;;;;;24.74;36.25;99181.13;5054333;28;20232;-61
2022/06/23 09:46:28;;;;;;;3.65;2.10;;;;;;;24.72;36.80;99196.31;5033926;28;20087;-62
2022/06/23 09:49:17;;;;;;;1.90;1.80;;;;;;;24.42;36.20;99205.13;5052926;28;20037;-60
2022/06/23 09:52:20;;;;;;;3.58;2.30;;;;;;;24.47;36.76;99211.69;5052182;28;20110;-59
2022/06/23 09:54:59;;;;;;;4.72;2.17;;;;;;;24.34;36.44;99208.41;5051951;28;20036;-59
2022/06/23 09:57:31;;;;;;;2.28;2.08;;;;;;;24.30;37.51;99207.84;5047223;28;20021;-59
2022/06/23 09:59:59;;;;;;;2.83;2.25;;;;;;;24.53;37.74;99209.47;5052481;28;20028;-61
2022/06/23 10:03:03;;;;;;;2.30;2.00;;;;;;;24.44;36.91;99209.31;5051255;28;20041;-60
2022/06/23 10:05:53;;;;;;;4.13;2.17;;;;;;;24.64;37.87;99204.94;5044245;28;20071;-60
2022/06/23 10:08:31;;;;;;;2.60;1.90;;;;;;;24.55;36.30;99210.16;5051404;28;20031;-59
2022/06/23 10:11:34;;;;;;;2.90;1.90;;;;;;;24.59;37.02;99191.22;5049254;28;20063;-61
2022/06/23 10:14:06;;;;;;;3.30;2.00;;;;;;;24.78;36.72;99218.75;5035867;28;20041;-60
2022/06/23 10:17:05;;;;;;;2.55;2.00;;;;;;;24.49;36.11;99202.78;5056164;28;20043;-61
2022/06/23 10:19:40;;;;;;;2.53;2.13;;;;;;;24.57;37.46;99197.63;5049887;28;20034;-61
2022/06/23 10:22:28;;;;;;;2.30;2.10;;;;;;;24.77;37.07;99198.53;5048965;28;20045;-61
2022/06/23 10:24:55;;;;;;;1.80;1.70;;;;;;;24.88;37.27;99210.84;5042989;28;20032;-61
2022/06/23 10:27:58;;;;;;;5.05;1.90;;;;;;;24.77;36.92;99177.34;5052093;28;20028;-60
2022/06/23 10:30:42;;;;;;;2.92;1.85;;;;;;;25.08;37.76;99206.41;5050937;28;20032;-61
2022/06/23 10:33:22;;;;;;;2.50;1.98;;;;;;;24.88;36.94;99203.72;5048185;28;20025;-61
2022/06/23 10:36:13;;;;;;;4.35;2.28;;;;;;;24.80;37.21;99208.88;5052162;28;20029;-61
2022/06/23 10:38:41;;;;;;;1.95;1.85;;;;;;;24.78;36.36;99210.81;5048033;28;20398;-60
2022/06/23 10:41:32;;;;;;;2.30;2.05;;;;;;;24.53;36.09;99206.84;5052398;28;20048;-60
2022/06/23 10:44:10;;;;;;;4.75;2.38;;;;;;;24.59;36.88;99211.59;5051671;28;20071;-61
2022/06/23 10:46:51;;;;;;;3.92;2.30;;;;;;;24.14;35.99;99191.59;5051562;28;20035;-61
2022/06/23 10:49:38;;;;;;;4.18;1.92;;;;;;;24.50;36.38;99212.38;5052331;28;20025;-60
2022/06/23 10:52:33;;;;;;;3.45;2.15;;;;;;;24.52;36.86;99198.03;5048575;28;20059;-60
2022/06/23 10:55:17;;;;;;;3.20;1.92;;;;;;;24.67;35.58;99202.97;5044367;28;20029;-60
2022/06/23 10:58:20;;;;;;;4.07;2.05;;;;;;;24.51;35.74;99185.75;5031100;28;20159;-60
2022/06/23 11:01:04;;;;;;;4.10;2.03;;;;;;;24.68;37.58;99194.06;5032340;28;20033;-62
2022/06/23 11:03:38;;;;;;;3.47;2.03;;;;;;;24.71;36.80;99204.38;5030929;28;20112;-61
2022/06/23 11:06:27;;;;;;;4.13;2.22;;;;;;;24.86;37.62;99202.22;5049610;28;20108;-62
2022/06/23 11:08:58;;;;;;;2.65;2.45;;;;;;;25.00;37.59;99207.09;5039619;28;20044;-61
2022/06/23 11:11:52;;;;;;;3.80;2.25;;;;;;;24.71;36.38;99186.72;5059162;28;20032;-61
2022/06/23 11:14:24;;;;;;;6.30;1.90;;;;;;;24.67;36.47;99219.72;5048625;28;20035;-62
2022/06/23 11:17:16;;;;;;;;;;;;;;;24.51;35.97;99220.19;5049841;28;20025;-62
2022/06/23 11:20:00;;;;;;;2.50;2.30;;;;;;;24.76;37.03;99218.91;5033000;28;20026;-61
2022/06/23 11:22:35;;;;;;;2.45;2.00;;;;;;;24.86;37.44;99221.56;5051635;28;20060;-61
2022/06/23 11:25:30;;;;;;;2.67;2.17;;;;;;;24.97;37.42;99210.88;5050032;28;20029;-62
2022/06/23 11:28:04;;;;;;;2.40;2.20;;;;;;;24.91;37.05;99206.13;5064125;28;20021;-62
2022/06/23 11:30:42;;;;;;;3.85;2.45;;;;;;;24.81;36.45;99213.19;5031928;28;20042;-60
2022/06/23 11:33:27;;;;;;;5.82;2.40;;;;;;;24.55;36.55;99183.69;5051158;28;20029;-61
2022/06/23 11:36:20;;;;;;;3.45;2.40;;;;;;;24.50;35.97;99175.31;5045663;28;20039;-61
2022/06/23 11:39:10;;;;;;;2.65;2.45;;;;;;;24.49;36.17;99177.13;5038717;28;20426;-62
2022/06/23 11:41:51;;;;;;;3.58;3.28;;;;;;;24.86;36.38;99207.50;5035132;28;20041;-62
2022/06/23 11:44:35;;;;;;;2.83;2.40;;;;;;;24.80;36.59;99224.78;5035465;28;20017;-61
2022/06/23 11:47:19;;;;;;;3.35;2.28;;;;;;;24.21;35.88;99179.53;5034859;28;20069;-61
2022/06/23 11:50:15;;;;;;;3.15;2.30;;;;;;;24.59;36.35;99214.22;5050690;28;20024;-61
2022/06/23 11:53:10;;;;;;;3.33;2.60;;;;;;;24.41;36.61;99203.44;5075415;28;20024;-61
2022/06/23 11:55:44;;;;;;;8.68;2.78;;;;;;;24.73;37.42;99207.75;5036754;28;20041;-62
2022/06/23 11:58:34;;;;;;;5.45;2.70;;;;;;;24.85;37.32;99216.41;5038137;28;20501;-63
2022/06/23 12:01:15;;;;;;;2.50;2.30;;;;;;;24.89;36.99;99220.47;5053909;28;20024;-63
2022/06/23 12:03:52;;;;;;;2.47;2.28;;;;;;;24.86;37.19;99218.09;5035148;28;20029;-62
2022/06/23 12:06:45;;;;;;;4.30;2.78;;;;;;;24.97;37.31;99226.75;5034948;28;20029;-62
2022/06/23 12:09:14;;;;;;;4.05;2.28;;;;;;;24.98;37.53;99224.94;5035106;28;20033;-62
2022/06/23 12:11:40;;;;;;;3.10;2.38;;;;;;;25.04;36.79;99232.34;5035173;28;20036;-64
2022/06/23 12:14:07;;;;;;;2.45;2.22;;;;;;;25.00;35.66;99230.97;5055917;28;20025;-63
2022/06/23 12:16:39;;;;;;;15.93;11.65;;;;;;;24.97;36.19;99210.88;5063448;28;20022;-63
2022/06/23 12:19:10;;;;;;;4.93;2.88;;;;;;;25.14;36.92;99216.47;5035088;28;20053;-63
2022/06/23 12:22:11;;;;;;;3.53;2.50;;;;;;;25.22;37.34;99213.94;5051860;28;20126;-63
2022/06/23 12:24:45;;;;;;;5.43;2.72;;;;;;;24.89;36.29;99217.81;5054766;28;20048;-63
2022/06/23 12:27:27;;;;;;;4.25;2.55;;;;;;;24.97;37.26;99216.16;5054632;28;20410;-63
2022/06/23 12:30:02;;;;;;;3.33;2.83;;;;;;;24.83;36.67;99224.50;5071343;28;20023;-63
2022/06/23 12:32:47;;;;;;;4.20;2.78;;;;;;;24.84;37.19;99220.88;5053953;28;20048;-62
2022/06/23 12:35:40;;;;;;;4.00;2.53;;;;;;;25.00;39.50;99220.34;5056888;28;20033;-63
2022/06/23 12:38:10;;;;;;;5.50;2.78;;;;;;;24.97;38.99;99216.16;5065782;28;20082;-63
2022/06/23 12:41:16;;;;;;;3.38;2.58;;;;;;;24.80;37.45;99214.19;5064343;28;20051;-62